Time;durP1;ratioP1;P1;durP2;ratioP2;P2;SDS_P1;SDS_P2;PMS_P1;PMS_P2;Temp;Humidity;BMP_temperature;BMP_pressure;BME280_temperature;BME280_humidity;BME280_pressure;Samples;Min_cycle;Max_cycle;Signal;HPM_P1;HPM_P2
2022/09/14 00:00:50;;;;;;;5.20;3.95;;;16.40;99.90;;;;;;5033535;28;20218;-77
2022/09/14 00:04:03;;;;;;;3.70;3.35;;;16.40;99.90;;;;;;5037586;28;20217;-79
2022/09/14 00:06:51;;;;;;;3.78;3.38;;;16.30;99.90;;;;;;5038775;28;20224;-79
2022/09/14 00:09:40;;;;;;;4.40;3.53;;;16.30;99.90;;;;;;5023527;28;20256;-79
2022/09/14 00:12:29;;;;;;;4.57;3.67;;;16.20;99.90;;;;;;5026804;28;20249;-79
2022/09/14 00:15:18;;;;;;;3.70;3.40;;;16.30;99.90;;;;;;5035636;28;20395;-78
2022/09/14 00:18:09;;;;;;;4.10;3.70;;;16.20;99.90;;;;;;5021458;28;20638;-81
2022/09/14 00:21:01;;;;;;;3.90;3.50;;;16.20;99.90;;;;;;5039074;28;20208;-79
2022/09/14 00:23:50;;;;;;;5.25;3.85;;;16.10;99.90;;;;;;5027099;28;20221;-79
2022/09/14 00:26:38;;;;;;;5.10;4.57;;;16.10;99.90;;;;;;5031963;28;20225;-78
2022/09/14 00:29:27;;;;;;;5.95;4.20;;;16.00;99.90;;;;;;5031496;28;20363;-78
2022/09/14 00:32:15;;;;;;;4.93;4.50;;;16.00;99.90;;;;;;5019332;28;20225;-78
2022/09/14 00:35:05;;;;;;;5.35;4.85;;;15.90;99.90;;;;;;5037125;28;20785;-79
2022/09/14 00:37:55;;;;;;;4.90;4.50;;;15.90;99.90;;;;;;5023493;28;20230;-80
2022/09/14 00:40:44;;;;;;;4.80;4.40;;;15.80;99.90;;;;;;5036216;28;20224;-79
2022/09/14 00:43:33;;;;;;;5.70;5.20;;;15.90;99.90;;;;;;5035622;28;20769;-79
2022/09/14 00:46:22;;;;;;;6.53;5.07;;;15.80;99.90;;;;;;5033602;28;20736;-76
2022/09/14 00:49:14;;;;;;;5.95;5.45;;;15.70;99.90;;;;;;5033195;28;20218;-79
2022/09/14 00:52:07;;;;;;;5.72;5.15;;;15.70;99.90;;;;;;5038369;28;20226;-80
2022/09/14 00:55:02;;;;;;;6.22;5.32;;;15.70;99.90;;;;;;5036524;28;20981;-80
2022/09/14 00:57:53;;;;;;;7.78;5.35;;;15.60;99.90;;;;;;5021855;28;20236;-79
2022/09/14 01:00:41;;;;;;;5.60;5.10;;;15.60;99.90;;;;;;5036545;28;20228;-79
2022/09/14 01:03:30;;;;;;;6.35;5.55;;;15.50;99.90;;;;;;5020145;28;20279;-79
2022/09/14 01:06:25;;;;;;;6.60;5.38;;;15.50;99.90;;;;;;5036561;28;20228;-79
2022/09/14 01:09:23;;;;;;;6.38;5.78;;;15.50;99.90;;;;;;5019288;28;20999;-79
2022/09/14 01:12:23;;;;;;;5.70;5.20;;;15.50;99.90;;;;;;5034865;28;20714;-79
2022/09/14 01:15:17;;;;;;;5.88;5.38;;;15.60;99.90;;;;;;5035465;28;20236;-82
2022/09/14 01:18:15;;;;;;;6.35;5.70;;;15.60;99.90;;;;;;5034650;28;20213;-79
2022/09/14 01:21:09;;;;;;;6.75;5.97;;;15.40;99.90;;;;;;5040457;28;21021;-79
2022/09/14 01:24:06;;;;;;;6.45;5.78;;;15.50;99.90;;;;;;5027086;28;20713;-79
2022/09/14 01:29:57;;;;;;;7.20;6.20;;;15.50;99.90;;;;;;5061732;27;20596;-77
2022/09/14 01:32:50;;;;;;;7.32;6.30;;;15.40;99.90;;;;;;5046300;28;20220;-77
2022/09/14 01:35:44;;;;;;;7.95;6.65;;;15.50;99.90;;;;;;5048499;28;20725;-77
2022/09/14 01:38:37;;;;;;;7.57;6.78;;;15.60;99.90;;;;;;5053751;28;20360;-78
2022/09/14 01:41:30;;;;;;;8.30;7.22;;;15.60;99.90;;;;;;5057125;28;20294;-85
2022/09/14 01:44:23;;;;;;;7.95;7.15;;;15.60;99.90;;;;;;5054863;28;20221;-85
2022/09/14 01:47:30;;;;;;;8.85;7.95;;;15.60;99.90;;;;;;5063761;28;20235;-85
2022/09/14 01:50:22;;;;;;;8.75;7.93;;;15.60;99.90;;;;;;5067397;28;20306;-84
2022/09/14 01:53:15;;;;;;;9.07;8.18;;;15.60;99.90;;;;;;5062166;28;20673;-87
2022/09/14 01:56:08;;;;;;;10.10;8.75;;;15.60;99.90;;;;;;5058648;28;20486;-85
2022/09/14 01:59:05;;;;;;;11.32;8.90;;;15.60;99.90;;;;;;5058945;28;20266;-85
2022/09/14 02:01:59;;;;;;;10.77;9.68;;;15.60;99.90;;;;;;5066434;28;20227;-86
2022/09/14 02:04:54;;;;;;;12.88;10.93;;;15.60;99.90;;;;;;5061058;28;20259;-85
2022/09/14 02:07:42;;;;;;;11.85;10.65;;;15.60;99.90;;;;;;5065386;28;20227;-86
2022/09/14 02:10:32;;;;;;;16.92;13.02;;;15.60;99.90;;;;;;5076477;28;20224;-86
2022/09/14 02:13:20;;;;;;;14.38;12.23;;;15.60;99.90;;;;;;5066489;28;20736;-87
2022/09/14 02:16:09;;;;;;;14.07;12.60;;;15.70;99.90;;;;;;5076826;28;20231;-87
2022/09/14 02:19:00;;;;;;;15.32;13.30;;;15.70;99.90;;;;;;5048625;28;20228;-87
2022/09/14 02:21:50;;;;;;;18.17;14.77;;;15.70;99.90;;;;;;5052580;28;20216;-86
2022/09/14 02:24:39;;;;;;;17.50;15.38;;;15.60;99.90;;;;;;5071947;28;20698;-86
2022/09/14 02:27:28;;;;;;;18.02;16.20;;;15.60;99.90;;;;;;5083113;28;20219;-86
2022/09/14 02:30:19;;;;;;;20.75;16.40;;;15.60;99.90;;;;;;5051783;28;20229;-85
2022/09/14 02:33:15;;;;;;;20.35;16.77;;;15.60;99.90;;;;;;5067149;28;20228;-86
2022/09/14 02:36:10;;;;;;;20.45;17.35;;;15.60;99.90;;;;;;5055372;28;20323;-86
2022/09/14 02:39:07;;;;;;;20.52;17.83;;;15.40;99.90;;;;;;5050886;28;20804;-86
2022/09/14 02:42:06;;;;;;;25.17;18.50;;;15.60;99.90;;;;;;5051006;28;20209;-87
2022/09/14 02:45:03;;;;;;;20.83;18.30;;;15.60;99.90;;;;;;5046428;28;20274;-86
2022/09/14 02:47:57;;;;;;;25.27;21.52;;;15.50;99.90;;;;;;5050848;28;20380;-86
2022/09/14 02:50:51;;;;;;;25.40;21.73;;;15.50;99.90;;;;;;5045166;28;20227;-86
2022/09/14 02:53:44;;;;;;;27.88;23.50;;;15.50;99.90;;;;;;5055532;28;20705;-86
2022/09/14 02:56:36;;;;;;;32.47;25.15;;;15.50;99.90;;;;;;5044464;28;20359;-86
2022/09/14 02:59:25;;;;;;;33.58;24.38;;;15.50;99.90;;;;;;5045481;28;20217;-86
2022/09/14 03:02:13;;;;;;;29.80;24.95;;;15.60;99.90;;;;;;5044797;28;20695;-86
2022/09/14 03:05:02;;;;;;;29.33;24.90;;;15.60;99.90;;;;;;5046632;28;20221;-88
2022/09/14 03:07:51;;;;;;;32.28;26.70;;;15.60;99.90;;;;;;5044421;28;20221;-87
2022/09/14 03:10:42;;;;;;;35.05;26.95;;;15.60;99.90;;;;;;5041416;28;20233;-86
2022/09/14 03:13:33;;;;;;;36.80;29.58;;;15.60;99.90;;;;;;5045088;28;20244;-86
2022/09/14 03:16:21;;;;;;;35.90;28.75;;;15.60;99.90;;;;;;5059859;28;20727;-87
2022/09/14 03:19:11;;;;;;;34.35;27.90;;;15.60;99.90;;;;;;5054497;28;20323;-87
2022/09/14 03:21:59;;;;;;;39.90;30.23;;;15.60;99.90;;;;;;5042314;28;20217;-86
2022/09/14 03:24:48;;;;;;;36.80;29.77;;;15.60;99.90;;;;;;5044031;28;20228;-87
2022/09/14 03:27:36;;;;;;;37.75;28.10;;;15.60;99.90;;;;;;5043971;28;20229;-85
2022/09/14 03:30:26;;;;;;;35.47;27.77;;;15.60;99.90;;;;;;5065664;28;20225;-85
2022/09/14 03:33:15;;;;;;;38.22;30.08;;;15.50;99.90;;;;;;5061931;28;20314;-85
2022/09/14 03:36:10;;;;;;;41.20;29.58;;;15.60;99.90;;;;;;5070361;28;20216;-87
2022/09/14 03:39:01;;;;;;;41.10;31.63;;;15.60;99.90;;;;;;5061430;28;20271;-87
2022/09/14 03:41:50;;;;;;;38.33;31.02;;;15.50;99.90;;;;;;5063345;28;20224;-86
2022/09/14 03:44:38;;;;;;;40.42;29.75;;;15.60;99.90;;;;;;5066090;28;20248;-85
2022/09/14 03:47:28;;;;;;;41.13;32.35;;;15.50;99.90;;;;;;5060123;28;20220;-84
2022/09/14 03:50:17;;;;;;;43.00;31.63;;;15.50;99.90;;;;;;5054490;28;20223;-84
2022/09/14 03:53:06;;;;;;;38.47;29.80;;;15.50;99.90;;;;;;5052979;28;20231;-86
2022/09/14 03:55:54;;;;;;;39.78;29.50;;;15.50;99.90;;;;;;5056584;28;20236;-86
2022/09/14 03:58:43;;;;;;;42.33;30.50;;;15.40;99.90;;;;;;5067310;28;20303;-85
2022/09/14 04:01:32;;;;;;;37.38;29.90;;;15.40;99.90;;;;;;5069266;28;20270;-87
2022/09/14 04:04:22;;;;;;;46.42;30.67;;;15.40;99.90;;;;;;5056639;28;20579;-86
2022/09/14 04:07:11;;;;;;;42.10;30.95;;;15.40;99.90;;;;;;5064771;28;20269;-85
2022/09/14 04:10:00;;;;;;;40.85;31.23;;;15.40;99.90;;;;;;5051589;28;20294;-86
2022/09/14 04:12:48;;;;;;;38.63;30.13;;;15.40;99.90;;;;;;5051217;28;20309;-86
2022/09/14 04:15:36;;;;;;;38.20;30.40;;;15.40;99.90;;;;;;5059052;28;20229;-86
2022/09/14 04:18:26;;;;;;;38.47;29.73;;;15.40;99.90;;;;;;5051037;28;20302;-86
2022/09/14 04:21:17;;;;;;;39.63;31.25;;;15.40;99.90;;;;;;5052929;28;20236;-86
2022/09/14 04:24:06;;;;;;;40.00;30.63;;;15.40;99.90;;;;;;5062966;28;20228;-86
2022/09/14 04:27:03;;;;;;;40.92;29.17;;;15.40;99.90;;;;;;5062554;28;20228;-86
2022/09/14 04:29:51;;;;;;;36.83;30.50;;;15.40;99.90;;;;;;5040789;28;20273;-85
2022/09/14 04:32:40;;;;;;;39.92;29.15;;;15.40;99.90;;;;;;5043309;28;20239;-85
2022/09/14 04:35:29;;;;;;;37.30;27.95;;;15.40;99.90;;;;;;5050321;28;20240;-86
2022/09/14 04:38:19;;;;;;;37.30;27.95;;;15.40;99.90;;;;;;5045060;28;20220;-88
2022/09/14 04:41:09;;;;;;;35.25;28.15;;;15.40;99.90;;;;;;5044034;28;20228;-86
2022/09/14 04:43:58;;;;;;;36.28;27.90;;;15.40;99.90;;;;;;5045849;28;20221;-86
2022/09/14 04:46:47;;;;;;;32.22;26.30;;;15.40;99.90;;;;;;5029212;28;20248;-86
2022/09/14 04:49:35;;;;;;;33.75;25.92;;;15.50;99.90;;;;;;5048620;28;20232;-86
2022/09/14 04:52:23;;;;;;;33.70;25.13;;;15.60;99.90;;;;;;5045636;28;20224;-86
2022/09/14 04:55:13;;;;;;;34.88;26.83;;;15.60;99.90;;;;;;5060460;28;20780;-86
2022/09/14 04:58:02;;;;;;;31.10;26.08;;;15.70;99.90;;;;;;5046807;28;20262;-86
2022/09/14 05:00:51;;;;;;;34.15;26.38;;;15.70;99.90;;;;;;5044385;28;20696;-86
2022/09/14 05:03:40;;;;;;;29.02;25.08;;;15.70;99.90;;;;;;5044845;28;20311;-86
2022/09/14 05:06:32;;;;;;;32.28;25.45;;;15.70;99.90;;;;;;5035969;28;20224;-86
2022/09/14 05:09:20;;;;;;;28.85;24.58;;;15.80;99.90;;;;;;5053910;28;20843;-87
2022/09/14 05:12:10;;;;;;;28.13;23.80;;;15.80;99.90;;;;;;5034184;28;20236;-87
2022/09/14 05:14:59;;;;;;;28.77;23.27;;;15.70;99.90;;;;;;5034506;28;20644;-86
2022/09/14 05:17:47;;;;;;;30.40;23.02;;;15.70;99.90;;;;;;5057722;28;20224;-86
2022/09/14 05:20:36;;;;;;;29.50;24.40;;;15.70;99.90;;;;;;5050218;28;20343;-86
2022/09/14 05:23:27;;;;;;;26.85;23.23;;;15.80;99.90;;;;;;5048482;28;20248;-85
2022/09/14 05:26:16;;;;;;;28.48;23.27;;;15.80;99.90;;;;;;5048053;28;20232;-86
2022/09/14 05:29:06;;;;;;;30.83;24.05;;;15.80;99.90;;;;;;5058091;28;20265;-88
2022/09/14 05:31:54;;;;;;;27.48;23.45;;;15.80;99.90;;;;;;5064624;28;20225;-90
2022/09/14 05:34:43;;;;;;;27.98;24.23;;;15.90;99.90;;;;;;5084590;28;20228;-86
2022/09/14 05:37:31;;;;;;;27.02;23.88;;;15.90;99.90;;;;;;5069454;28;20220;-87
2022/09/14 05:40:20;;;;;;;26.50;23.17;;;15.90;99.90;;;;;;5050794;28;20223;-86
2022/09/14 05:43:09;;;;;;;32.53;23.95;;;15.90;99.90;;;;;;5069701;28;20568;-85
2022/09/14 05:46:03;;;;;;;30.02;22.23;;;16.00;99.90;;;;;;5066479;28;20739;-85
2022/09/14 05:48:52;;;;;;;30.63;23.40;;;16.20;99.90;;;;;;5066940;28;20262;-87
2022/09/14 05:51:40;;;;;;;27.40;22.83;;;16.20;99.90;;;;;;5069352;28;20235;-87
2022/09/14 05:54:29;;;;;;;28.73;23.38;;;16.30;99.90;;;;;;5065097;28;20764;-86
2022/09/14 05:57:17;;;;;;;32.95;25.17;;;16.40;99.90;;;;;;5064641;28;20331;-85
2022/09/14 06:00:07;;;;;;;30.23;24.23;;;16.30;99.90;;;;;;5057141;28;20235;-85
2022/09/14 06:03:01;;;;;;;29.08;25.00;;;16.30;99.90;;;;;;5070842;28;20402;-85
2022/09/14 06:05:49;;;;;;;35.00;24.90;;;16.20;99.90;;;;;;5068817;28;20227;-85
2022/09/14 06:08:38;;;;;;;31.40;25.02;;;16.20;99.90;;;;;;5066369;28;20243;-83
2022/09/14 06:11:29;;;;;;;37.30;26.23;;;16.20;99.90;;;;;;5059531;28;20691;-85
2022/09/14 06:14:19;;;;;;;37.35;27.63;;;16.20;99.90;;;;;;5067394;28;20243;-86
2022/09/14 06:17:08;;;;;;;41.55;27.95;;;16.10;99.90;;;;;;5070134;28;20228;-87
2022/09/14 06:19:57;;;;;;;36.45;27.63;;;16.00;99.90;;;;;;5054121;28;20228;-83
2022/09/14 06:22:51;;;;;;;42.10;29.40;;;16.10;99.90;;;;;;5066431;28;20239;-85
2022/09/14 06:25:40;;;;;;;39.38;28.67;;;16.20;99.90;;;;;;5052527;28;20220;-83
2022/09/14 06:28:29;;;;;;;39.70;30.40;;;16.20;99.90;;;;;;5083727;28;20666;-83
2022/09/14 06:31:21;;;;;;;45.45;31.08;;;16.20;99.90;;;;;;5065988;28;20219;-83
2022/09/14 06:34:09;;;;;;;41.28;30.92;;;16.10;99.90;;;;;;5070603;28;20212;-80
2022/09/14 06:36:59;;;;;;;41.50;30.15;;;16.10;99.90;;;;;;5061645;28;20217;-82
2022/09/14 06:39:47;;;;;;;40.25;29.55;;;16.20;99.90;;;;;;5062993;28;20702;-82
2022/09/14 06:42:36;;;;;;;38.08;29.17;;;16.10;99.90;;;;;;5061468;28;20229;-80
2022/09/14 06:45:25;;;;;;;38.08;28.77;;;16.20;99.90;;;;;;5072403;28;20243;-78
2022/09/14 06:48:13;;;;;;;38.83;28.65;;;16.20;99.90;;;;;;5064008;28;20292;-78
2022/09/14 06:51:12;;;;;;;40.58;29.63;;;16.10;99.90;;;;;;5062145;28;21022;-78
2022/09/14 06:54:02;;;;;;;39.15;27.98;;;16.10;99.90;;;;;;5070118;28;20216;-79
2022/09/14 06:56:51;;;;;;;32.95;26.60;;;16.10;99.90;;;;;;5066213;28;20242;-78
2022/09/14 06:59:39;;;;;;;38.60;28.38;;;16.10;99.90;;;;;;5071686;28;20303;-78
2022/09/14 07:02:27;;;;;;;37.25;27.42;;;16.10;99.90;;;;;;5073346;28;20618;-78
2022/09/14 07:05:19;;;;;;;40.15;28.25;;;16.10;99.90;;;;;;5069408;28;20335;-78
2022/09/14 07:08:07;;;;;;;34.35;27.65;;;16.10;99.90;;;;;;5072297;28;20224;-78
2022/09/14 07:11:02;;;;;;;35.30;26.67;;;16.10;99.90;;;;;;5063868;28;20276;-77
2022/09/14 07:13:53;;;;;;;37.22;28.05;;;16.20;99.90;;;;;;5065610;28;20303;-79
2022/09/14 07:16:41;;;;;;;35.58;27.98;;;16.20;99.90;;;;;;5069408;28;20315;-79
2022/09/14 07:19:30;;;;;;;36.55;26.63;;;16.30;99.90;;;;;;5063344;28;20220;-79
2022/09/14 07:22:19;;;;;;;35.78;26.48;;;16.30;99.90;;;;;;5069684;28;20293;-78
2022/09/14 07:25:08;;;;;;;35.60;27.40;;;16.40;99.90;;;;;;5063787;28;20386;-77
2022/09/14 07:27:59;;;;;;;33.45;26.15;;;16.50;99.90;;;;;;5067635;28;20727;-78
2022/09/14 07:30:47;;;;;;;30.88;24.58;;;16.70;99.90;;;;;;5060000;28;20706;-78
2022/09/14 07:33:36;;;;;;;32.05;24.35;;;17.00;99.90;;;;;;5072886;28;20224;-78
2022/09/14 07:36:26;;;;;;;32.88;24.67;;;17.30;99.90;;;;;;5067082;28;20759;-78
2022/09/14 07:39:19;;;;;;;26.73;22.95;;;17.70;99.90;;;;;;5051938;28;20229;-78
2022/09/14 07:42:08;;;;;;;29.40;22.65;;;18.20;99.90;;;;;;5065752;28;20224;-78
2022/09/14 07:44:58;;;;;;;24.30;20.25;;;18.10;99.90;;;;;;5067093;28;20224;-78
2022/09/14 07:47:46;;;;;;;24.42;19.45;;;18.40;99.90;;;;;;5068328;28;20779;-78
2022/09/14 07:50:35;;;;;;;24.08;18.20;;;18.20;99.90;;;;;;5065801;28;20212;-78
2022/09/14 07:53:23;;;;;;;25.05;19.20;;;18.10;99.90;;;;;;5070672;28;20289;-78
2022/09/14 07:56:15;;;;;;;22.35;16.38;;;17.80;99.90;;;;;;5061773;28;20228;-78
2022/09/14 07:59:04;;;;;;;19.88;15.75;;;18.00;99.90;;;;;;5062244;28;20614;-78
2022/09/14 08:02:14;;;;;;;17.20;14.18;;;18.50;99.90;;;;;;5067470;28;20259;-79
2022/09/14 08:05:03;;;;;;;19.02;13.80;;;18.60;99.90;;;;;;5063787;28;20220;-78
2022/09/14 08:07:55;;;;;;;15.65;11.95;;;18.50;99.90;;;;;;5064753;28;20702;-79
2022/09/14 08:10:43;;;;;;;17.70;12.93;;;18.50;99.90;;;;;;5067097;28;20354;-79
2022/09/14 08:13:32;;;;;;;15.70;11.57;;;19.00;99.90;;;;;;5068486;28;20655;-80
2022/09/14 08:16:22;;;;;;;13.48;10.63;;;19.00;99.90;;;;;;5066799;28;20243;-80
2022/09/14 08:19:15;;;;;;;16.30;10.38;;;19.30;99.90;;;;;;5067167;28;20216;-78
2022/09/14 08:22:04;;;;;;;14.30;10.18;;;19.10;99.90;;;;;;5060451;28;20248;-78
2022/09/14 08:24:52;;;;;;;17.58;9.48;;;19.40;99.90;;;;;;5064895;28;20226;-78
2022/09/14 08:27:41;;;;;;;13.60;8.95;;;19.60;99.90;;;;;;5056815;28;20229;-78
2022/09/14 08:30:29;;;;;;;14.70;9.10;;;20.00;99.90;;;;;;5053434;28;20306;-77
2022/09/14 08:33:18;;;;;;;13.32;9.45;;;20.30;99.90;;;;;;5055505;28;21266;-78
2022/09/14 08:36:09;;;;;;;16.75;9.45;;;20.70;99.90;;;;;;5057511;28;20220;-79
2022/09/14 08:38:59;;;;;;;13.68;9.60;;;21.00;99.90;;;;;;5061487;28;20282;-78
2022/09/14 08:41:55;;;;;;;12.23;9.25;;;21.50;99.90;;;;;;5056798;28;20577;-77
2022/09/14 08:44:49;;;;;;;19.88;11.25;;;21.60;99.90;;;;;;5061212;28;20228;-77
2022/09/14 08:47:38;;;;;;;14.63;10.55;;;21.80;99.90;;;;;;5060758;28;20227;-78
2022/09/14 08:50:29;;;;;;;15.18;10.43;;;22.00;99.90;;;;;;5059348;28;20820;-78
2022/09/14 08:53:20;;;;;;;14.90;9.43;;;21.30;99.90;;;;;;5067967;28;20714;-78
2022/09/14 08:56:15;;;;;;;13.52;9.48;;;20.60;99.90;;;;;;5063386;28;20596;-77
2022/09/14 08:59:17;;;;;;;11.00;8.60;;;20.10;99.90;;;;;;5060965;28;20215;-79
2022/09/14 09:02:24;;;;;;;12.38;9.13;;;19.60;99.90;;;;;;5062691;28;20216;-78
2022/09/14 09:05:33;;;;;;;14.88;8.73;;;19.80;99.90;;;;;;5061766;28;20310;-78
2022/09/14 09:08:32;;;;;;;13.32;10.55;;;20.30;99.90;;;;;;5061779;28;20232;-78
2022/09/14 09:11:24;;;;;;;16.45;10.48;;;20.70;99.90;;;;;;5059784;28;20226;-79
2022/09/14 09:14:19;;;;;;;14.45;9.85;;;20.70;99.90;;;;;;5062041;28;20243;-77
2022/09/14 09:17:14;;;;;;;19.48;10.35;;;20.40;99.90;;;;;;5059455;28;20773;-78
2022/09/14 09:20:08;;;;;;;13.93;9.38;;;20.20;99.90;;;;;;5059884;28;20228;-78
2022/09/14 09:23:07;;;;;;;12.82;8.82;;;20.00;99.90;;;;;;5059872;28;20216;-79
2022/09/14 09:26:00;;;;;;;13.98;8.23;;;20.10;99.90;;;;;;5057437;28;20220;-77
2022/09/14 09:28:52;;;;;;;17.38;8.02;;;20.00;99.90;;;;;;5064240;28;20227;-78
2022/09/14 09:31:50;;;;;;;10.88;6.82;;;19.90;99.90;;;;;;5058462;28;20232;-78
2022/09/14 09:34:58;;;;;;;11.60;6.80;;;19.80;99.90;;;;;;5058953;28;20286;-80
2022/09/14 09:38:12;;;;;;;12.80;6.50;;;19.60;99.90;;;;;;5059804;28;21255;-79
2022/09/14 09:41:12;;;;;;;10.25;6.55;;;19.50;99.90;;;;;;5065057;28;20211;-79
2022/09/14 09:44:02;;;;;;;10.93;6.32;;;19.20;99.90;;;;;;5074982;28;20227;-79
2022/09/14 09:46:54;;;;;;;16.13;7.93;;;19.30;99.90;;;;;;5058211;28;20299;-79
2022/09/14 09:49:44;;;;;;;14.40;10.30;;;19.50;99.90;;;;;;5064254;28;20234;-79
2022/09/14 09:52:33;;;;;;;13.23;8.40;;;19.70;99.90;;;;;;5068036;28;20228;-80
2022/09/14 09:55:24;;;;;;;15.35;7.93;;;19.60;99.90;;;;;;5067668;28;20227;-81
2022/09/14 09:58:34;;;;;;;13.35;7.22;;;19.50;99.90;;;;;;5062149;28;20223;-79
2022/09/14 10:01:27;;;;;;;14.30;7.50;;;19.30;99.90;;;;;;5058487;28;20288;-79
2022/09/14 10:04:18;;;;;;;11.98;6.88;;;19.20;99.90;;;;;;5066765;28;20220;-80
2022/09/14 10:07:21;;;;;;;10.95;7.15;;;19.20;99.90;;;;;;5067567;28;20365;-79
2022/09/14 10:10:13;;;;;;;10.18;6.65;;;19.10;99.90;;;;;;5062415;28;20217;-82
2022/09/14 10:13:05;;;;;;;12.50;6.25;;;19.20;99.90;;;;;;5065064;28;20227;-79
2022/09/14 10:16:06;;;;;;;11.02;6.57;;;19.40;99.90;;;;;;5065835;28;20343;-80
2022/09/14 10:18:55;;;;;;;10.50;6.65;;;19.50;99.90;;;;;;5078508;28;20682;-80
2022/09/14 10:22:03;;;;;;;9.25;6.53;;;19.50;99.90;;;;;;5066883;28;20836;-79
2022/09/14 10:24:55;;;;;;;9.95;5.60;;;19.40;99.90;;;;;;5063329;28;20238;-81
2022/09/14 10:27:47;;;;;;;10.68;5.00;;;19.50;99.90;;;;;;5064691;28;20220;-79
2022/09/14 10:30:42;;;;;;;7.15;4.57;;;19.40;99.90;;;;;;5061905;28;20704;-79
2022/09/14 10:33:32;;;;;;;7.80;4.28;;;19.30;99.90;;;;;;5072759;28;20285;-78
2022/09/14 10:36:24;;;;;;;10.20;4.05;;;19.40;99.90;;;;;;5066544;28;20220;-79
2022/09/14 10:39:23;;;;;;;6.90;4.38;;;19.50;99.90;;;;;;5059966;28;20242;-80
2022/09/14 10:42:25;;;;;;;4.03;3.30;;;19.50;99.90;;;;;;5066286;28;21037;-81
2022/09/14 10:45:21;;;;;;;5.32;3.55;;;19.50;99.90;;;;;;5070481;28;20629;-80
2022/09/14 10:48:37;;;;;;;6.07;3.90;;;19.50;99.90;;;;;;5061859;28;20246;-79
2022/09/14 10:51:41;;;;;;;8.93;3.95;;;19.50;99.90;;;;;;5059614;28;20220;-79
2022/09/14 10:54:56;;;;;;;8.88;3.90;;;19.50;99.90;;;;;;5061121;28;20239;-80
2022/09/14 10:57:53;;;;;;;7.78;4.10;;;19.60;99.90;;;;;;5062353;28;20576;-80
2022/09/14 11:00:51;;;;;;;6.18;3.92;;;19.70;99.90;;;;;;5060376;28;20243;-77
2022/09/14 11:03:58;;;;;;;7.38;3.17;;;19.70;99.90;;;;;;5058013;28;20290;-79
2022/09/14 11:06:58;;;;;;;8.15;3.10;;;19.80;99.90;;;;;;5065127;28;20224;-78
2022/09/14 11:09:55;;;;;;;5.85;2.95;;;20.20;99.90;;;;;;5063904;28;20769;-79
2022/09/14 11:12:56;;;;;;;5.78;2.33;;;20.20;99.90;;;;;;5059277;28;20254;-80
2022/09/14 11:15:55;;;;;;;4.38;2.40;;;20.30;99.90;;;;;;5069964;28;20228;-79
2022/09/14 11:18:52;;;;;;;4.60;2.42;;;20.00;99.90;;;;;;5059752;28;20324;-79
2022/09/14 11:21:50;;;;;;;6.13;2.40;;;20.00;99.90;;;;;;5064810;28;20776;-79
2022/09/14 11:24:42;;;;;;;3.45;2.53;;;20.00;99.90;;;;;;5067136;28;20319;-81
2022/09/14 11:27:36;;;;;;;6.93;2.75;;;20.00;99.90;;;;;;5076055;28;20224;-78
2022/09/14 11:30:30;;;;;;;2.65;2.20;;;19.80;99.90;;;;;;5069495;28;20303;-79
2022/09/14 11:33:24;;;;;;;6.75;2.47;;;19.90;99.90;;;;;;5061152;28;20475;-79
2022/09/14 11:36:22;;;;;;;6.93;2.50;;;19.80;99.90;;;;;;5060470;28;20512;-79
2022/09/14 11:39:17;;;;;;;4.65;2.30;;;19.90;99.90;;;;;;5057826;28;20221;-78
2022/09/14 11:42:10;;;;;;;6.13;2.78;;;20.00;99.90;;;;;;5056539;28;20326;-81
2022/09/14 11:45:04;;;;;;;5.28;2.70;;;20.30;99.90;;;;;;5064574;28;20227;-79
2022/09/14 11:48:06;;;;;;;5.25;3.80;;;20.20;99.90;;;;;;5065891;28;20287;-83
2022/09/14 11:51:18;;;;;;;4.60;2.85;;;20.20;99.90;;;;;;5069091;28;20330;-85
2022/09/14 11:54:15;;;;;;;5.93;2.45;;;20.10;99.90;;;;;;5060195;28;20281;-81
2022/09/14 11:57:04;;;;;;;3.97;2.50;;;20.00;99.90;;;;;;5062874;28;20239;-76
2022/09/14 11:59:54;;;;;;;7.05;2.60;;;19.90;99.90;;;;;;5061921;28;20220;-76
2022/09/14 12:02:59;;;;;;;7.38;3.45;;;19.90;99.90;;;;;;5076384;28;20232;-78
2022/09/14 12:05:49;;;;;;;6.03;2.95;;;19.90;99.90;;;;;;5055939;28;20208;-81
2022/09/14 12:08:40;;;;;;;4.90;2.70;;;19.90;99.90;;;;;;5059950;28;20363;-81
2022/09/14 12:11:36;;;;;;;6.93;2.45;;;19.80;99.90;;;;;;5057319;28;20300;-80
2022/09/14 12:14:33;;;;;;;5.30;2.67;;;19.80;99.90;;;;;;5058488;28;20433;-81
2022/09/14 12:17:24;;;;;;;4.18;2.67;;;19.70;99.90;;;;;;5055375;28;20220;-81
2022/09/14 12:20:42;;;;;;;5.53;2.90;;;19.70;99.90;;;;;;5066652;28;20235;-82
2022/09/14 12:23:43;;;;;;;6.30;2.72;;;19.70;99.90;;;;;;5063447;28;20668;-81
2022/09/14 12:26:34;;;;;;;3.50;2.40;;;19.90;99.90;;;;;;5059907;28;20272;-80
2022/09/14 12:29:31;;;;;;;4.43;2.53;;;19.90;99.90;;;;;;5062076;28;20709;-81
2022/09/14 12:32:37;;;;;;;5.85;2.83;;;19.70;99.90;;;;;;5059772;28;20393;-82
2022/09/14 12:35:46;;;;;;;6.05;2.75;;;19.60;99.90;;;;;;5054918;28;20623;-81
2022/09/14 12:38:43;;;;;;;6.53;2.90;;;19.60;99.90;;;;;;5058860;28;20325;-81
2022/09/14 12:42:11;;;;;;;7.22;3.42;;;19.60;99.90;;;;;;5063847;28;20220;-81
2022/09/14 12:45:40;;;;;;;6.13;3.00;;;19.70;99.90;;;;;;5059818;28;20230;-81
2022/09/14 12:48:57;;;;;;;5.20;2.83;;;19.60;99.90;;;;;;5059549;28;20358;-82
2022/09/14 12:51:48;;;;;;;4.10;2.80;;;19.50;99.90;;;;;;5066294;28;20221;-81
2022/09/14 12:54:48;;;;;;;4.40;2.60;;;19.50;99.90;;;;;;5062910;28;20447;-81
2022/09/14 12:57:45;;;;;;;5.75;2.42;;;19.40;99.90;;;;;;5055977;28;20223;-80
2022/09/14 13:00:59;;;;;;;5.00;2.55;;;19.40;99.90;;;;;;5053384;28;20307;-81
2022/09/14 13:03:50;;;;;;;5.15;2.53;;;19.40;99.90;;;;;;5059618;28;20231;-84
2022/09/14 13:06:43;;;;;;;8.40;2.83;;;19.30;99.90;;;;;;5055342;28;20694;-83
2022/09/14 13:09:33;;;;;;;4.82;2.53;;;19.40;99.90;;;;;;5055206;28;20291;-84
2022/09/14 13:12:29;;;;;;;5.78;2.40;;;19.30;99.90;;;;;;5059036;28;20223;-87
2022/09/14 13:15:21;;;;;;;4.15;2.92;;;19.30;99.90;;;;;;5070143;28;20231;-86
2022/09/14 13:18:29;;;;;;;6.38;4.53;;;19.30;99.90;;;;;;5057677;28;20248;-84
2022/09/14 13:21:20;;;;;;;8.80;4.65;;;19.30;99.90;;;;;;5050668;28;20239;-85
2022/09/14 13:24:22;;;;;;;4.70;3.00;;;19.30;99.90;;;;;;5060828;28;20216;-85
2022/09/14 13:27:20;;;;;;;3.30;2.53;;;19.30;99.90;;;;;;5058259;28;20212;-85
2022/09/14 13:30:20;;;;;;;8.15;3.40;;;19.40;99.90;;;;;;5059879;28;20247;-84
2022/09/14 13:33:15;;;;;;;4.50;2.53;;;19.40;99.90;;;;;;5056565;28;20357;-85
2022/09/14 13:36:07;;;;;;;4.38;2.80;;;19.50;99.90;;;;;;5053237;28;20725;-84
2022/09/14 13:38:57;;;;;;;5.20;3.22;;;19.50;99.90;;;;;;5052914;28;20231;-84
2022/09/14 13:41:45;;;;;;;5.00;3.17;;;19.50;99.90;;;;;;5062946;28;20220;-84
2022/09/14 13:44:36;;;;;;;4.32;2.85;;;19.50;99.90;;;;;;5060823;28;20253;-83
2022/09/14 13:47:26;;;;;;;3.90;2.60;;;19.50;99.90;;;;;;5061322;28;20223;-84
2022/09/14 13:50:15;;;;;;;7.05;3.05;;;19.60;99.90;;;;;;5055665;28;20277;-84
2022/09/14 13:53:05;;;;;;;8.60;3.00;;;19.60;99.90;;;;;;5042217;28;20825;-84
2022/09/14 13:55:53;;;;;;;4.75;2.67;;;19.60;99.90;;;;;;5056075;28;20220;-84
2022/09/14 13:58:42;;;;;;;3.97;2.83;;;19.50;99.90;;;;;;5060539;28;20220;-84
2022/09/14 14:01:30;;;;;;;4.80;3.28;;;19.60;99.90;;;;;;5074970;28;20232;-84
2022/09/14 14:04:32;;;;;;;4.28;2.67;;;19.60;99.90;;;;;;5061567;28;20419;-85
2022/09/14 14:07:25;;;;;;;7.32;2.78;;;19.60;99.90;;;;;;5057310;28;20314;-84
2022/09/14 14:10:25;;;;;;;4.88;2.85;;;19.60;99.90;;;;;;5058237;28;20247;-86
2022/09/14 14:13:24;;;;;;;4.55;3.10;;;19.70;99.90;;;;;;5058929;28;20232;-85
2022/09/14 14:16:18;;;;;;;4.60;2.70;;;19.70;99.90;;;;;;5061294;28;20811;-84
2022/09/14 14:19:27;;;;;;;4.75;3.00;;;19.60;99.90;;;;;;5060036;28;20208;-85
2022/09/14 14:22:21;;;;;;;5.05;2.72;;;19.50;99.90;;;;;;5054664;28;20254;-87
2022/09/14 14:25:19;;;;;;;4.03;2.42;;;19.60;99.90;;;;;;5058804;28;20236;-84
2022/09/14 14:28:17;;;;;;;6.55;3.03;;;19.50;99.90;;;;;;5056775;28;20220;-84
2022/09/14 14:31:08;;;;;;;5.40;2.35;;;19.60;99.90;;;;;;5059623;28;20212;-84
2022/09/14 14:33:57;;;;;;;3.78;2.60;;;19.50;99.90;;;;;;5055085;28;20235;-86
2022/09/14 14:36:48;;;;;;;4.38;2.78;;;19.60;99.90;;;;;;5062165;28;20239;-80
2022/09/14 14:39:39;;;;;;;3.92;2.35;;;19.70;99.90;;;;;;5064870;28;20735;-80
2022/09/14 14:42:28;;;;;;;4.50;2.65;;;19.70;99.90;;;;;;5063677;28;20220;-81
2022/09/14 14:45:21;;;;;;;53.97;5.35;;;19.80;99.90;;;;;;5069992;28;20219;-81
2022/09/14 14:48:11;;;;;;;5.22;2.50;;;19.70;99.90;;;;;;5058304;28;20228;-84
2022/09/14 14:50:59;;;;;;;4.70;2.33;;;19.70;99.90;;;;;;5069031;28;20231;-80